sensor_id;sensor_type;location;lat;lon;timestamp;P1;durP1;ratioP1;P2;durP2;ratioP2
72720;SDS011;60835;50.974;10.322;2022-12-18T00:01:15;72.63;;;21.88;;
72720;SDS011;60835;50.974;10.322;2022-12-18T00:03:46;87.20;;;24.08;;
72720;SDS011;60835;50.974;10.322;2022-12-18T00:06:13;83.38;;;23.30;;
72720;SDS011;60835;50.974;10.322;2022-12-18T00:08:41;66.20;;;23.15;;
72720;SDS011;60835;50.974;10.322;2022-12-18T00:11:09;70.32;;;22.60;;
72720;SDS011;60835;50.974;10.322;2022-12-18T00:13:38;67.55;;;22.33;;
72720;SDS011;60835;50.974;10.322;2022-12-18T00:16:06;61.95;;;21.65;;
72720;SDS011;60835;50.974;10.322;2022-12-18T00:18:36;61.65;;;20.30;;
72720;SDS011;60835;50.974;10.322;2022-12-18T00:21:04;54.17;;;19.85;;
72720;SDS011;60835;50.974;10.322;2022-12-18T00:23:32;61.08;;;20.10;;
72720;SDS011;60835;50.974;10.322;2022-12-18T00:26:01;62.20;;;20.10;;
72720;SDS011;60835;50.974;10.322;2022-12-18T00:28:29;66.85;;;21.05;;
72720;SDS011;60835;50.974;10.322;2022-12-18T00:30:59;67.20;;;20.75;;
72720;SDS011;60835;50.974;10.322;2022-12-18T00:33:33;65.90;;;21.58;;
72720;SDS011;60835;50.974;10.322;2022-12-18T00:36:01;56.83;;;20.15;;
72720;SDS011;60835;50.974;10.322;2022-12-18T00:38:28;69.20;;;20.50;;
72720;SDS011;60835;50.974;10.322;2022-12-18T00:40:55;70.18;;;22.33;;
72720;SDS011;60835;50.974;10.322;2022-12-18T00:43:21;66.03;;;21.50;;
72720;SDS011;60835;50.974;10.322;2022-12-18T00:45:48;51.40;;;18.70;;
72720;SDS011;60835;50.974;10.322;2022-12-18T00:48:15;54.25;;;17.92;;
72720;SDS011;60835;50.974;10.322;2022-12-18T00:50:41;56.47;;;18.40;;
72720;SDS011;60835;50.974;10.322;2022-12-18T00:53:08;56.80;;;18.98;;
72720;SDS011;60835;50.974;10.322;2022-12-18T00:55:34;55.53;;;19.27;;
72720;SDS011;60835;50.974;10.322;2022-12-18T00:58:03;52.53;;;18.42;;
72720;SDS011;60835;50.974;10.322;2022-12-18T01:00:29;60.30;;;18.73;;
72720;SDS011;60835;50.974;10.322;2022-12-18T01:02:56;62.17;;;20.98;;
72720;SDS011;60835;50.974;10.322;2022-12-18T01:05:23;67.70;;;20.35;;
72720;SDS011;60835;50.974;10.322;2022-12-18T01:07:49;62.60;;;20.08;;
72720;SDS011;60835;50.974;10.322;2022-12-18T01:10:16;57.13;;;19.55;;
72720;SDS011;60835;50.974;10.322;2022-12-18T01:12:43;58.45;;;19.27;;
72720;SDS011;60835;50.974;10.322;2022-12-18T01:15:10;66.85;;;18.98;;
72720;SDS011;60835;50.974;10.322;2022-12-18T01:17:38;62.78;;;19.33;;
72720;SDS011;60835;50.974;10.322;2022-12-18T01:20:05;56.78;;;18.63;;
72720;SDS011;60835;50.974;10.322;2022-12-18T01:22:32;67.07;;;20.00;;
72720;SDS011;60835;50.974;10.322;2022-12-18T01:24:58;66.03;;;21.73;;
72720;SDS011;60835;50.974;10.322;2022-12-18T01:27:25;66.65;;;21.73;;
72720;SDS011;60835;50.974;10.322;2022-12-18T01:29:51;70.43;;;21.50;;
72720;SDS011;60835;50.974;10.322;2022-12-18T01:32:18;66.05;;;21.20;;
72720;SDS011;60835;50.974;10.322;2022-12-18T01:34:44;57.35;;;19.25;;
72720;SDS011;60835;50.974;10.322;2022-12-18T01:37:11;54.95;;;17.35;;
72720;SDS011;60835;50.974;10.322;2022-12-18T01:39:37;49.33;;;16.48;;
72720;SDS011;60835;50.974;10.322;2022-12-18T01:42:11;53.05;;;18.17;;
72720;SDS011;60835;50.974;10.322;2022-12-18T01:47:30;59.80;;;18.40;;
72720;SDS011;60835;50.974;10.322;2022-12-18T01:52:41;64.10;;;20.08;;
72720;SDS011;60835;50.974;10.322;2022-12-18T01:55:10;59.20;;;17.83;;
72720;SDS011;60835;50.974;10.322;2022-12-18T01:57:38;66.05;;;20.45;;
72720;SDS011;60835;50.974;10.322;2022-12-18T02:00:16;62.95;;;20.92;;
72720;SDS011;60835;50.974;10.322;2022-12-18T02:02:47;55.33;;;16.83;;
72720;SDS011;60835;50.974;10.322;2022-12-18T02:05:18;55.75;;;18.30;;
72720;SDS011;60835;50.974;10.322;2022-12-18T02:07:58;62.97;;;19.13;;
72720;SDS011;60835;50.974;10.322;2022-12-18T02:10:48;54.70;;;18.05;;
72720;SDS011;60835;50.974;10.322;2022-12-18T02:13:36;54.25;;;17.20;;
72720;SDS011;60835;50.974;10.322;2022-12-18T02:18:52;57.28;;;17.67;;
72720;SDS011;60835;50.974;10.322;2022-12-18T02:27:23;52.88;;;16.65;;
72720;SDS011;60835;50.974;10.322;2022-12-18T02:29:51;47.05;;;15.13;;
72720;SDS011;60835;50.974;10.322;2022-12-18T02:34:54;40.70;;;13.27;;
72720;SDS011;60835;50.974;10.322;2022-12-18T02:37:23;37.72;;;12.00;;
72720;SDS011;60835;50.974;10.322;2022-12-18T02:39:53;36.78;;;11.77;;
72720;SDS011;60835;50.974;10.322;2022-12-18T02:42:22;37.83;;;12.15;;
72720;SDS011;60835;50.974;10.322;2022-12-18T02:44:50;40.38;;;14.35;;
72720;SDS011;60835;50.974;10.322;2022-12-18T02:47:19;42.40;;;14.57;;
72720;SDS011;60835;50.974;10.322;2022-12-18T02:55:28;54.00;;;16.70;;
72720;SDS011;60835;50.974;10.322;2022-12-18T02:57:56;49.10;;;17.80;;
72720;SDS011;60835;50.974;10.322;2022-12-18T03:00:31;52.13;;;17.20;;
72720;SDS011;60835;50.974;10.322;2022-12-18T03:03:10;47.47;;;15.52;;
72720;SDS011;60835;50.974;10.322;2022-12-18T03:08:20;49.00;;;16.13;;
72720;SDS011;60835;50.974;10.322;2022-12-18T03:10:55;62.10;;;19.15;;
72720;SDS011;60835;50.974;10.322;2022-12-18T03:13:28;50.75;;;17.75;;
72720;SDS011;60835;50.974;10.322;2022-12-18T03:15:59;48.20;;;16.52;;
72720;SDS011;60835;50.974;10.322;2022-12-18T03:18:33;61.35;;;19.00;;
72720;SDS011;60835;50.974;10.322;2022-12-18T03:21:05;49.10;;;17.83;;
72720;SDS011;60835;50.974;10.322;2022-12-18T03:23:35;51.63;;;14.93;;
72720;SDS011;60835;50.974;10.322;2022-12-18T03:26:07;52.00;;;17.25;;
72720;SDS011;60835;50.974;10.322;2022-12-18T03:28:39;43.88;;;15.43;;
72720;SDS011;60835;50.974;10.322;2022-12-18T03:31:11;49.70;;;15.95;;
72720;SDS011;60835;50.974;10.322;2022-12-18T03:33:47;58.70;;;17.10;;
72720;SDS011;60835;50.974;10.322;2022-12-18T03:36:20;47.05;;;14.55;;
72720;SDS011;60835;50.974;10.322;2022-12-18T03:38:47;46.17;;;15.18;;
72720;SDS011;60835;50.974;10.322;2022-12-18T03:41:30;47.47;;;16.55;;
72720;SDS011;60835;50.974;10.322;2022-12-18T03:44:11;44.88;;;13.95;;
72720;SDS011;60835;50.974;10.322;2022-12-18T03:49:39;46.20;;;14.80;;
72720;SDS011;60835;50.974;10.322;2022-12-18T03:54:43;45.47;;;16.92;;
72720;SDS011;60835;50.974;10.322;2022-12-18T03:57:13;43.00;;;14.82;;
72720;SDS011;60835;50.974;10.322;2022-12-18T03:59:43;44.25;;;13.73;;
72720;SDS011;60835;50.974;10.322;2022-12-18T04:02:12;40.35;;;13.15;;
72720;SDS011;60835;50.974;10.322;2022-12-18T04:04:42;41.13;;;13.27;;
72720;SDS011;60835;50.974;10.322;2022-12-18T04:07:10;35.95;;;11.20;;
72720;SDS011;60835;50.974;10.322;2022-12-18T04:09:39;33.95;;;11.23;;
72720;SDS011;60835;50.974;10.322;2022-12-18T04:12:08;31.38;;;10.77;;
72720;SDS011;60835;50.974;10.322;2022-12-18T04:14:35;25.88;;;9.13;;
72720;SDS011;60835;50.974;10.322;2022-12-18T04:17:02;26.75;;;9.48;;
72720;SDS011;60835;50.974;10.322;2022-12-18T04:19:29;24.00;;;8.75;;
72720;SDS011;60835;50.974;10.322;2022-12-18T04:21:55;31.17;;;11.20;;
72720;SDS011;60835;50.974;10.322;2022-12-18T04:24:22;32.53;;;11.38;;
72720;SDS011;60835;50.974;10.322;2022-12-18T04:26:49;36.17;;;11.82;;
72720;SDS011;60835;50.974;10.322;2022-12-18T04:29:15;26.77;;;9.40;;
72720;SDS011;60835;50.974;10.322;2022-12-18T04:31:42;29.08;;;10.02;;
72720;SDS011;60835;50.974;10.322;2022-12-18T04:34:08;29.73;;;11.80;;
72720;SDS011;60835;50.974;10.322;2022-12-18T04:36:35;34.42;;;11.65;;
72720;SDS011;60835;50.974;10.322;2022-12-18T04:39:01;31.65;;;10.52;;
72720;SDS011;60835;50.974;10.322;2022-12-18T04:41:28;36.30;;;11.57;;
72720;SDS011;60835;50.974;10.322;2022-12-18T04:43:54;37.53;;;11.95;;
72720;SDS011;60835;50.974;10.322;2022-12-18T04:46:21;43.05;;;13.90;;
72720;SDS011;60835;50.974;10.322;2022-12-18T04:48:47;38.55;;;13.48;;
72720;SDS011;60835;50.974;10.322;2022-12-18T04:51:14;38.10;;;12.80;;
72720;SDS011;60835;50.974;10.322;2022-12-18T04:53:41;29.90;;;10.30;;
72720;SDS011;60835;50.974;10.322;2022-12-18T04:56:09;30.27;;;9.98;;
72720;SDS011;60835;50.974;10.322;2022-12-18T04:58:38;32.42;;;10.40;;
72720;SDS011;60835;50.974;10.322;2022-12-18T05:01:06;30.70;;;11.23;;
72720;SDS011;60835;50.974;10.322;2022-12-18T05:03:36;38.22;;;13.52;;
72720;SDS011;60835;50.974;10.322;2022-12-18T05:06:04;35.47;;;13.52;;
72720;SDS011;60835;50.974;10.322;2022-12-18T05:08:32;37.03;;;13.40;;
72720;SDS011;60835;50.974;10.322;2022-12-18T05:11:05;44.13;;;15.32;;
72720;SDS011;60835;50.974;10.322;2022-12-18T05:13:33;43.05;;;14.23;;
72720;SDS011;60835;50.974;10.322;2022-12-18T05:16:02;46.83;;;15.95;;
72720;SDS011;60835;50.974;10.322;2022-12-18T05:18:29;48.70;;;16.38;;
72720;SDS011;60835;50.974;10.322;2022-12-18T05:20:55;53.28;;;17.10;;
72720;SDS011;60835;50.974;10.322;2022-12-18T05:23:22;49.70;;;14.18;;
72720;SDS011;60835;50.974;10.322;2022-12-18T05:25:53;35.42;;;12.50;;
72720;SDS011;60835;50.974;10.322;2022-12-18T05:28:24;31.25;;;11.55;;
72720;SDS011;60835;50.974;10.322;2022-12-18T05:30:53;29.80;;;10.32;;
72720;SDS011;60835;50.974;10.322;2022-12-18T05:33:22;32.53;;;10.38;;
72720;SDS011;60835;50.974;10.322;2022-12-18T05:35:54;32.05;;;8.77;;
72720;SDS011;60835;50.974;10.322;2022-12-18T05:38:22;27.17;;;8.77;;
72720;SDS011;60835;50.974;10.322;2022-12-18T05:40:51;25.52;;;8.95;;
72720;SDS011;60835;50.974;10.322;2022-12-18T05:43:19;33.42;;;11.13;;
72720;SDS011;60835;50.974;10.322;2022-12-18T05:45:48;36.92;;;11.80;;
72720;SDS011;60835;50.974;10.322;2022-12-18T05:48:15;31.35;;;9.90;;
72720;SDS011;60835;50.974;10.322;2022-12-18T05:50:43;27.27;;;9.63;;
72720;SDS011;60835;50.974;10.322;2022-12-18T05:53:14;30.58;;;9.63;;
72720;SDS011;60835;50.974;10.322;2022-12-18T05:55:42;28.35;;;8.77;;
72720;SDS011;60835;50.974;10.322;2022-12-18T05:58:12;22.88;;;7.70;;
72720;SDS011;60835;50.974;10.322;2022-12-18T06:00:41;22.50;;;8.48;;
72720;SDS011;60835;50.974;10.322;2022-12-18T06:03:10;22.42;;;8.02;;
72720;SDS011;60835;50.974;10.322;2022-12-18T06:05:39;23.73;;;8.15;;
72720;SDS011;60835;50.974;10.322;2022-12-18T06:08:07;24.50;;;8.00;;
72720;SDS011;60835;50.974;10.322;2022-12-18T06:10:33;20.33;;;8.27;;
72720;SDS011;60835;50.974;10.322;2022-12-18T06:13:00;25.50;;;9.15;;
72720;SDS011;60835;50.974;10.322;2022-12-18T06:15:26;28.65;;;9.43;;
72720;SDS011;60835;50.974;10.322;2022-12-18T06:17:53;25.25;;;9.35;;
72720;SDS011;60835;50.974;10.322;2022-12-18T06:20:20;29.00;;;9.93;;
72720;SDS011;60835;50.974;10.322;2022-12-18T06:22:46;28.73;;;9.85;;
72720;SDS011;60835;50.974;10.322;2022-12-18T06:25:13;30.73;;;9.75;;
72720;SDS011;60835;50.974;10.322;2022-12-18T06:27:40;21.08;;;8.00;;
72720;SDS011;60835;50.974;10.322;2022-12-18T06:30:07;22.55;;;8.98;;
72720;SDS011;60835;50.974;10.322;2022-12-18T06:32:34;25.38;;;9.85;;
72720;SDS011;60835;50.974;10.322;2022-12-18T06:35:01;30.52;;;10.50;;
72720;SDS011;60835;50.974;10.322;2022-12-18T06:37:27;32.42;;;10.77;;
72720;SDS011;60835;50.974;10.322;2022-12-18T06:39:54;33.47;;;11.00;;
72720;SDS011;60835;50.974;10.322;2022-12-18T06:42:20;36.05;;;12.68;;
72720;SDS011;60835;50.974;10.322;2022-12-18T06:44:47;31.80;;;10.02;;
72720;SDS011;60835;50.974;10.322;2022-12-18T06:47:14;36.33;;;11.02;;
72720;SDS011;60835;50.974;10.322;2022-12-18T06:49:40;33.78;;;10.40;;
72720;SDS011;60835;50.974;10.322;2022-12-18T06:52:07;29.80;;;10.93;;
72720;SDS011;60835;50.974;10.322;2022-12-18T06:54:33;28.92;;;9.85;;
72720;SDS011;60835;50.974;10.322;2022-12-18T06:56:59;36.70;;;12.60;;
72720;SDS011;60835;50.974;10.322;2022-12-18T06:59:26;30.98;;;10.77;;
72720;SDS011;60835;50.974;10.322;2022-12-18T07:01:53;30.80;;;11.80;;
72720;SDS011;60835;50.974;10.322;2022-12-18T07:04:20;32.85;;;10.95;;
72720;SDS011;60835;50.974;10.322;2022-12-18T07:06:46;30.33;;;10.10;;
72720;SDS011;60835;50.974;10.322;2022-12-18T07:09:12;24.88;;;8.85;;
72720;SDS011;60835;50.974;10.322;2022-12-18T07:11:39;25.70;;;9.40;;
72720;SDS011;60835;50.974;10.322;2022-12-18T07:14:05;24.80;;;8.88;;
72720;SDS011;60835;50.974;10.322;2022-12-18T07:16:34;25.88;;;9.55;;
72720;SDS011;60835;50.974;10.322;2022-12-18T07:19:01;24.35;;;10.32;;
72720;SDS011;60835;50.974;10.322;2022-12-18T07:21:28;26.60;;;9.63;;
72720;SDS011;60835;50.974;10.322;2022-12-18T07:23:54;35.13;;;11.95;;
72720;SDS011;60835;50.974;10.322;2022-12-18T07:26:21;35.53;;;11.80;;
72720;SDS011;60835;50.974;10.322;2022-12-18T07:28:48;52.15;;;16.45;;
72720;SDS011;60835;50.974;10.322;2022-12-18T07:31:19;60.45;;;15.50;;
72720;SDS011;60835;50.974;10.322;2022-12-18T07:33:47;29.35;;;12.07;;
72720;SDS011;60835;50.974;10.322;2022-12-18T07:36:14;35.00;;;11.52;;
72720;SDS011;60835;50.974;10.322;2022-12-18T07:38:41;27.55;;;10.82;;
72720;SDS011;60835;50.974;10.322;2022-12-18T07:41:09;35.35;;;12.75;;
72720;SDS011;60835;50.974;10.322;2022-12-18T07:43:37;47.58;;;14.63;;
72720;SDS011;60835;50.974;10.322;2022-12-18T07:46:05;40.78;;;13.75;;
72720;SDS011;60835;50.974;10.322;2022-12-18T07:48:33;40.88;;;12.48;;
72720;SDS011;60835;50.974;10.322;2022-12-18T07:51:04;37.13;;;12.80;;
72720;SDS011;60835;50.974;10.322;2022-12-18T07:53:32;34.58;;;10.68;;
72720;SDS011;60835;50.974;10.322;2022-12-18T07:56:00;26.90;;;10.00;;
72720;SDS011;60835;50.974;10.322;2022-12-18T07:58:49;28.85;;;10.27;;
72720;SDS011;60835;50.974;10.322;2022-12-18T08:01:16;32.83;;;11.55;;
72720;SDS011;60835;50.974;10.322;2022-12-18T08:03:43;28.25;;;9.65;;
72720;SDS011;60835;50.974;10.322;2022-12-18T08:06:10;35.72;;;12.15;;
72720;SDS011;60835;50.974;10.322;2022-12-18T08:08:36;46.55;;;15.18;;
72720;SDS011;60835;50.974;10.322;2022-12-18T08:11:03;40.85;;;13.73;;
72720;SDS011;60835;50.974;10.322;2022-12-18T08:13:30;37.03;;;13.73;;
72720;SDS011;60835;50.974;10.322;2022-12-18T08:18:27;41.95;;;15.02;;
72720;SDS011;60835;50.974;10.322;2022-12-18T08:20:54;40.17;;;14.68;;
72720;SDS011;60835;50.974;10.322;2022-12-18T08:23:22;39.08;;;15.88;;
72720;SDS011;60835;50.974;10.322;2022-12-18T08:25:53;39.35;;;14.73;;
72720;SDS011;60835;50.974;10.322;2022-12-18T08:28:20;41.33;;;15.55;;
72720;SDS011;60835;50.974;10.322;2022-12-18T08:30:46;38.25;;;15.02;;
72720;SDS011;60835;50.974;10.322;2022-12-18T08:33:18;40.50;;;15.82;;
72720;SDS011;60835;50.974;10.322;2022-12-18T08:35:44;36.55;;;14.75;;
72720;SDS011;60835;50.974;10.322;2022-12-18T08:38:11;37.20;;;15.15;;
72720;SDS011;60835;50.974;10.322;2022-12-18T08:40:37;38.35;;;15.02;;
72720;SDS011;60835;50.974;10.322;2022-12-18T08:43:04;41.33;;;16.27;;
72720;SDS011;60835;50.974;10.322;2022-12-18T08:46:06;41.75;;;17.00;;
72720;SDS011;60835;50.974;10.322;2022-12-18T08:48:33;37.42;;;15.70;;
72720;SDS011;60835;50.974;10.322;2022-12-18T08:51:00;38.85;;;16.67;;
72720;SDS011;60835;50.974;10.322;2022-12-18T08:53:27;37.63;;;17.85;;
72720;SDS011;60835;50.974;10.322;2022-12-18T08:56:00;38.08;;;17.20;;
72720;SDS011;60835;50.974;10.322;2022-12-18T08:58:27;35.92;;;16.58;;
72720;SDS011;60835;50.974;10.322;2022-12-18T09:00:53;38.58;;;18.70;;
72720;SDS011;60835;50.974;10.322;2022-12-18T09:03:20;36.05;;;17.40;;
72720;SDS011;60835;50.974;10.322;2022-12-18T09:05:48;38.60;;;18.33;;
72720;SDS011;60835;50.974;10.322;2022-12-18T09:08:15;42.90;;;18.83;;
72720;SDS011;60835;50.974;10.322;2022-12-18T09:10:42;36.28;;;17.50;;
72720;SDS011;60835;50.974;10.322;2022-12-18T09:13:11;36.35;;;16.50;;
72720;SDS011;60835;50.974;10.322;2022-12-18T09:15:41;31.65;;;14.25;;
72720;SDS011;60835;50.974;10.322;2022-12-18T09:18:09;28.10;;;14.82;;
72720;SDS011;60835;50.974;10.322;2022-12-18T09:20:36;31.08;;;14.77;;
72720;SDS011;60835;50.974;10.322;2022-12-18T09:23:03;30.50;;;15.65;;
72720;SDS011;60835;50.974;10.322;2022-12-18T09:25:30;27.27;;;14.18;;
72720;SDS011;60835;50.974;10.322;2022-12-18T09:27:59;31.23;;;14.93;;
72720;SDS011;60835;50.974;10.322;2022-12-18T09:30:26;31.80;;;15.70;;
72720;SDS011;60835;50.974;10.322;2022-12-18T09:32:53;33.13;;;16.17;;
72720;SDS011;60835;50.974;10.322;2022-12-18T09:35:20;28.42;;;15.65;;
72720;SDS011;60835;50.974;10.322;2022-12-18T09:37:46;36.72;;;18.25;;
72720;SDS011;60835;50.974;10.322;2022-12-18T09:40:16;35.13;;;17.17;;
72720;SDS011;60835;50.974;10.322;2022-12-18T09:42:46;33.97;;;17.58;;
72720;SDS011;60835;50.974;10.322;2022-12-18T09:45:18;32.35;;;15.43;;
72720;SDS011;60835;50.974;10.322;2022-12-18T09:47:45;34.42;;;16.88;;
72720;SDS011;60835;50.974;10.322;2022-12-18T09:50:28;34.05;;;16.65;;
72720;SDS011;60835;50.974;10.322;2022-12-18T09:53:05;34.58;;;16.75;;
72720;SDS011;60835;50.974;10.322;2022-12-18T09:55:37;32.92;;;16.95;;
72720;SDS011;60835;50.974;10.322;2022-12-18T10:01:11;27.60;;;14.02;;
72720;SDS011;60835;50.974;10.322;2022-12-18T10:03:40;30.77;;;14.95;;
72720;SDS011;60835;50.974;10.322;2022-12-18T10:06:10;30.50;;;15.57;;
72720;SDS011;60835;50.974;10.322;2022-12-18T10:08:49;29.95;;;15.45;;
72720;SDS011;60835;50.974;10.322;2022-12-18T10:20:09;81.90;;;36.08;;
72720;SDS011;60835;50.974;10.322;2022-12-18T10:22:48;43.42;;;22.13;;
72720;SDS011;60835;50.974;10.322;2022-12-18T10:27:47;33.95;;;17.30;;
72720;SDS011;60835;50.974;10.322;2022-12-18T10:30:18;34.08;;;16.92;;
72720;SDS011;60835;50.974;10.322;2022-12-18T10:32:47;34.25;;;16.40;;
72720;SDS011;60835;50.974;10.322;2022-12-18T10:35:16;32.15;;;15.27;;
72720;SDS011;60835;50.974;10.322;2022-12-18T10:48:33;24.50;;;13.00;;
72720;SDS011;60835;50.974;10.322;2022-12-18T10:51:02;26.00;;;13.48;;
72720;SDS011;60835;50.974;10.322;2022-12-18T10:53:38;25.38;;;13.52;;
72720;SDS011;60835;50.974;10.322;2022-12-18T10:56:08;23.55;;;12.93;;
72720;SDS011;60835;50.974;10.322;2022-12-18T10:58:36;25.92;;;13.77;;
72720;SDS011;60835;50.974;10.322;2022-12-18T11:01:17;24.13;;;13.43;;
72720;SDS011;60835;50.974;10.322;2022-12-18T11:03:47;24.98;;;14.27;;
72720;SDS011;60835;50.974;10.322;2022-12-18T11:06:28;25.38;;;14.43;;
72720;SDS011;60835;50.974;10.322;2022-12-18T11:08:59;22.83;;;13.45;;
72720;SDS011;60835;50.974;10.322;2022-12-18T11:11:37;24.85;;;14.40;;
72720;SDS011;60835;50.974;10.322;2022-12-18T11:14:05;29.17;;;14.38;;
72720;SDS011;60835;50.974;10.322;2022-12-18T11:16:48;27.65;;;15.55;;
72720;SDS011;60835;50.974;10.322;2022-12-18T11:19:36;25.40;;;15.30;;
72720;SDS011;60835;50.974;10.322;2022-12-18T11:22:23;23.30;;;13.38;;
72720;SDS011;60835;50.974;10.322;2022-12-18T11:24:57;24.67;;;14.10;;
72720;SDS011;60835;50.974;10.322;2022-12-18T11:28:04;23.25;;;13.40;;
72720;SDS011;60835;50.974;10.322;2022-12-18T11:30:33;27.73;;;14.82;;
72720;SDS011;60835;50.974;10.322;2022-12-18T11:33:12;25.02;;;13.65;;
72720;SDS011;60835;50.974;10.322;2022-12-18T11:35:56;30.00;;;17.55;;
72720;SDS011;60835;50.974;10.322;2022-12-18T11:38:30;23.77;;;14.00;;
72720;SDS011;60835;50.974;10.322;2022-12-18T11:43:55;21.20;;;12.80;;
72720;SDS011;60835;50.974;10.322;2022-12-18T11:46:35;24.88;;;13.75;;
72720;SDS011;60835;50.974;10.322;2022-12-18T11:49:10;20.10;;;11.50;;
72720;SDS011;60835;50.974;10.322;2022-12-18T11:51:47;20.77;;;10.40;;
72720;SDS011;60835;50.974;10.322;2022-12-18T11:54:28;17.33;;;9.80;;
72720;SDS011;60835;50.974;10.322;2022-12-18T12:02:37;19.45;;;8.52;;
72720;SDS011;60835;50.974;10.322;2022-12-18T12:05:40;16.20;;;7.93;;
72720;SDS011;60835;50.974;10.322;2022-12-18T12:08:17;17.10;;;8.75;;
72720;SDS011;60835;50.974;10.322;2022-12-18T12:14:14;15.73;;;8.05;;
72720;SDS011;60835;50.974;10.322;2022-12-18T12:19:46;18.25;;;8.68;;
72720;SDS011;60835;50.974;10.322;2022-12-18T12:31:10;18.40;;;8.57;;
72720;SDS011;60835;50.974;10.322;2022-12-18T12:33:52;17.77;;;9.07;;
72720;SDS011;60835;50.974;10.322;2022-12-18T12:38:55;16.52;;;8.45;;
72720;SDS011;60835;50.974;10.322;2022-12-18T12:41:26;17.92;;;8.85;;
72720;SDS011;60835;50.974;10.322;2022-12-18T12:44:22;20.27;;;9.20;;
72720;SDS011;60835;50.974;10.322;2022-12-18T12:46:55;21.15;;;9.73;;
72720;SDS011;60835;50.974;10.322;2022-12-18T12:49:26;21.48;;;10.00;;
72720;SDS011;60835;50.974;10.322;2022-12-18T12:51:59;18.00;;;9.60;;
72720;SDS011;60835;50.974;10.322;2022-12-18T12:54:31;18.92;;;10.35;;
72720;SDS011;60835;50.974;10.322;2022-12-18T13:02:28;23.63;;;11.02;;
72720;SDS011;60835;50.974;10.322;2022-12-18T13:07:49;17.92;;;9.45;;
72720;SDS011;60835;50.974;10.322;2022-12-18T13:10:26;20.80;;;10.95;;
72720;SDS011;60835;50.974;10.322;2022-12-18T13:13:00;24.30;;;10.63;;
72720;SDS011;60835;50.974;10.322;2022-12-18T13:15:43;21.95;;;11.18;;
72720;SDS011;60835;50.974;10.322;2022-12-18T13:20:44;18.77;;;10.63;;
72720;SDS011;60835;50.974;10.322;2022-12-18T13:28:54;24.33;;;12.32;;
72720;SDS011;60835;50.974;10.322;2022-12-18T13:34:15;23.42;;;11.73;;
72720;SDS011;60835;50.974;10.322;2022-12-18T13:36:54;27.48;;;12.48;;
72720;SDS011;60835;50.974;10.322;2022-12-18T13:39:24;27.85;;;11.80;;
72720;SDS011;60835;50.974;10.322;2022-12-18T13:44:37;37.00;;;15.90;;
72720;SDS011;60835;50.974;10.322;2022-12-18T13:50:00;28.20;;;13.35;;
72720;SDS011;60835;50.974;10.322;2022-12-18T13:52:28;33.95;;;14.18;;
72720;SDS011;60835;50.974;10.322;2022-12-18T13:55:04;29.13;;;12.68;;
72720;SDS011;60835;50.974;10.322;2022-12-18T13:57:34;33.22;;;13.38;;
72720;SDS011;60835;50.974;10.322;2022-12-18T14:02:55;30.20;;;13.68;;
72720;SDS011;60835;50.974;10.322;2022-12-18T14:05:27;34.35;;;15.65;;
72720;SDS011;60835;50.974;10.322;2022-12-18T14:08:11;33.40;;;14.73;;
72720;SDS011;60835;50.974;10.322;2022-12-18T14:10:41;32.50;;;15.15;;
72720;SDS011;60835;50.974;10.322;2022-12-18T14:13:36;28.02;;;13.63;;
72720;SDS011;60835;50.974;10.322;2022-12-18T14:16:04;27.58;;;13.98;;
72720;SDS011;60835;50.974;10.322;2022-12-18T14:18:36;28.33;;;13.30;;
72720;SDS011;60835;50.974;10.322;2022-12-18T14:21:26;27.67;;;13.35;;
72720;SDS011;60835;50.974;10.322;2022-12-18T14:26:47;27.33;;;12.65;;
72720;SDS011;60835;50.974;10.322;2022-12-18T14:29:29;27.80;;;13.18;;
72720;SDS011;60835;50.974;10.322;2022-12-18T14:32:06;29.13;;;13.25;;
72720;SDS011;60835;50.974;10.322;2022-12-18T14:37:14;30.00;;;14.65;;
72720;SDS011;60835;50.974;10.322;2022-12-18T14:39:53;29.83;;;14.60;;
72720;SDS011;60835;50.974;10.322;2022-12-18T14:42:25;26.80;;;13.18;;
72720;SDS011;60835;50.974;10.322;2022-12-18T14:51:23;30.27;;;12.60;;
72720;SDS011;60835;50.974;10.322;2022-12-18T14:53:47;27.40;;;12.38;;
72720;SDS011;60835;50.974;10.322;2022-12-18T14:59:12;32.50;;;13.32;;
72720;SDS011;60835;50.974;10.322;2022-12-18T15:04:35;29.85;;;12.95;;
72720;SDS011;60835;50.974;10.322;2022-12-18T15:07:14;29.67;;;13.07;;
72720;SDS011;60835;50.974;10.322;2022-12-18T15:10:02;39.33;;;15.93;;
72720;SDS011;60835;50.974;10.322;2022-12-18T15:12:42;27.15;;;12.32;;
72720;SDS011;60835;50.974;10.322;2022-12-18T15:18:14;30.67;;;14.00;;
72720;SDS011;60835;50.974;10.322;2022-12-18T15:23:21;27.55;;;13.73;;
72720;SDS011;60835;50.974;10.322;2022-12-18T15:25:54;37.22;;;14.25;;
72720;SDS011;60835;50.974;10.322;2022-12-18T15:28:52;31.23;;;13.45;;
72720;SDS011;60835;50.974;10.322;2022-12-18T15:31:32;34.45;;;14.85;;
72720;SDS011;60835;50.974;10.322;2022-12-18T15:34:13;33.03;;;14.82;;
72720;SDS011;60835;50.974;10.322;2022-12-18T15:36:46;31.45;;;14.70;;
72720;SDS011;60835;50.974;10.322;2022-12-18T15:39:13;34.08;;;14.68;;
72720;SDS011;60835;50.974;10.322;2022-12-18T15:41:39;32.20;;;14.85;;
72720;SDS011;60835;50.974;10.322;2022-12-18T15:44:21;29.85;;;14.07;;
72720;SDS011;60835;50.974;10.322;2022-12-18T15:46:49;34.25;;;14.65;;
72720;SDS011;60835;50.974;10.322;2022-12-18T15:49:16;34.10;;;15.27;;
72720;SDS011;60835;50.974;10.322;2022-12-18T15:51:42;29.77;;;14.63;;
72720;SDS011;60835;50.974;10.322;2022-12-18T15:54:11;32.20;;;15.50;;
72720;SDS011;60835;50.974;10.322;2022-12-18T15:56:41;34.78;;;16.38;;
72720;SDS011;60835;50.974;10.322;2022-12-18T15:59:27;31.83;;;14.77;;
72720;SDS011;60835;50.974;10.322;2022-12-18T16:01:54;35.88;;;15.25;;
72720;SDS011;60835;50.974;10.322;2022-12-18T16:04:21;35.63;;;13.95;;
72720;SDS011;60835;50.974;10.322;2022-12-18T16:06:49;32.03;;;14.40;;
72720;SDS011;60835;50.974;10.322;2022-12-18T16:09:37;35.30;;;14.48;;
72720;SDS011;60835;50.974;10.322;2022-12-18T16:12:06;37.33;;;16.60;;
72720;SDS011;60835;50.974;10.322;2022-12-18T16:14:36;32.92;;;16.33;;
72720;SDS011;60835;50.974;10.322;2022-12-18T16:17:03;34.33;;;15.25;;
72720;SDS011;60835;50.974;10.322;2022-12-18T16:19:35;32.88;;;15.90;;
72720;SDS011;60835;50.974;10.322;2022-12-18T16:22:01;30.85;;;14.77;;
72720;SDS011;60835;50.974;10.322;2022-12-18T16:24:29;31.63;;;14.82;;
72720;SDS011;60835;50.974;10.322;2022-12-18T16:26:58;37.05;;;16.15;;
72720;SDS011;60835;50.974;10.322;2022-12-18T16:29:26;36.38;;;16.13;;
72720;SDS011;60835;50.974;10.322;2022-12-18T16:31:54;36.53;;;16.80;;
72720;SDS011;60835;50.974;10.322;2022-12-18T16:34:26;31.65;;;14.77;;
72720;SDS011;60835;50.974;10.322;2022-12-18T16:36:58;35.08;;;15.32;;
72720;SDS011;60835;50.974;10.322;2022-12-18T16:39:35;33.97;;;14.68;;
72720;SDS011;60835;50.974;10.322;2022-12-18T16:42:03;33.67;;;16.42;;
72720;SDS011;60835;50.974;10.322;2022-12-18T16:44:43;39.63;;;18.15;;
72720;SDS011;60835;50.974;10.322;2022-12-18T16:47:10;38.65;;;17.20;;